createdAt,value
2017-08-07T00:02:15.060Z,47.02
2017-08-07T00:04:46.986Z,46.85
2017-08-07T00:07:30.767Z,46.72
2017-08-07T00:10:02.594Z,46.93
2017-08-07T00:12:33.675Z,47.04
2017-08-07T00:15:15.463Z,46.94
2017-08-07T00:17:46.562Z,47.15
2017-08-07T00:20:21.342Z,47.10
2017-08-07T00:22:52.474Z,47.07
2017-08-07T00:25:24.355Z,46.93
2017-08-07T00:27:55.435Z,46.85
2017-08-07T00:30:26.491Z,46.92
2017-08-07T00:32:57.876Z,47.05
2017-08-07T00:35:28.938Z,47.19
2017-08-07T00:38:00.785Z,47.26
2017-08-07T00:40:32.398Z,47.51
2017-08-07T00:43:04.532Z,47.59
2017-08-07T00:45:35.796Z,47.68
2017-08-07T00:48:07.073Z,47.73
2017-08-07T00:50:39.129Z,47.87
2017-08-07T00:53:10.213Z,47.96
2017-08-07T00:55:41.288Z,48.17
2017-08-07T00:58:12.930Z,48.29
2017-08-07T01:00:44.876Z,48.38
2017-08-07T01:03:16.643Z,48.64
2017-08-07T01:05:48.263Z,48.58
2017-08-07T01:08:19.387Z,48.85
2017-08-07T01:10:50.443Z,48.94
2017-08-07T01:13:21.927Z,49.41
2017-08-07T01:15:53.001Z,49.83
2017-08-07T01:18:24.096Z,50.59
2017-08-07T01:20:55.146Z,50.75
2017-08-07T01:23:26.216Z,51.04
2017-08-07T01:25:57.478Z,51.15
2017-08-07T01:28:29.300Z,51.39
2017-08-07T01:31:00.722Z,51.58
2017-08-07T01:33:32.341Z,51.79
2017-08-07T01:36:03.949Z,52.02
2017-08-07T01:38:36.023Z,52.69
2017-08-07T01:41:07.098Z,52.78
2017-08-07T01:43:38.146Z,53.10
2017-08-07T01:46:11.020Z,53.67
2017-08-07T01:48:42.110Z,54.07
2017-08-07T01:51:13.851Z,54.17
2017-08-07T01:53:44.943Z,54.60
2017-08-07T01:56:16.054Z,54.89
2017-08-07T01:58:47.146Z,55.36
2017-08-07T02:01:21.355Z,55.56
2017-08-07T02:03:53.365Z,55.72
2017-08-07T02:06:24.922Z,56.41
2017-08-07T02:08:56.909Z,56.63
2017-08-07T02:11:27.950Z,57.01
2017-08-07T02:13:59.135Z,57.14
2017-08-07T02:16:31.424Z,57.41
2017-08-07T02:19:02.464Z,57.84
2017-08-07T02:21:33.491Z,58.08
2017-08-07T02:24:05.955Z,58.42
2017-08-07T02:26:37.620Z,58.97
2017-08-07T02:29:10.812Z,58.88
2017-08-07T02:31:42.150Z,58.87
2017-08-07T02:34:13.309Z,59.11
2017-08-07T02:36:44.312Z,59.21
2017-08-07T02:39:15.379Z,59.36
2017-08-07T02:41:46.404Z,59.73
2017-08-07T02:44:17.564Z,59.73
2017-08-07T02:46:49.654Z,59.80
2017-08-07T02:49:21.492Z,59.85
2017-08-07T02:51:52.736Z,60.10
2017-08-07T02:54:23.776Z,60.31
2017-08-07T02:56:55.113Z,60.10
2017-08-07T02:59:26.162Z,60.07
2017-08-07T03:01:57.227Z,60.02
2017-08-07T03:04:28.294Z,60.19
2017-08-07T03:06:59.343Z,60.16
2017-08-07T03:09:30.403Z,60.26
2017-08-07T03:12:03.253Z,60.30
2017-08-07T03:14:34.578Z,60.48
2017-08-07T03:17:07.053Z,60.56
2017-08-07T03:19:38.141Z,60.67
2017-08-07T03:22:09.279Z,60.65
2017-08-07T03:24:40.398Z,60.67
2017-08-07T03:27:11.466Z,60.49
2017-08-07T03:29:42.545Z,60.52
2017-08-07T03:32:15.334Z,60.51
2017-08-07T03:34:47.302Z,60.41
2017-08-07T03:37:18.409Z,60.19
2017-08-07T03:39:49.521Z,60.04
2017-08-07T03:42:20.614Z,60.16
2017-08-07T03:44:51.658Z,60.12
2017-08-07T03:47:23.176Z,59.87
2017-08-07T03:49:54.221Z,59.75
2017-08-07T03:52:25.255Z,59.79
2017-08-07T03:54:56.317Z,59.78
2017-08-07T03:57:27.342Z,59.55
2017-08-07T03:59:58.612Z,59.47
2017-08-07T04:02:30.837Z,59.42
2017-08-07T04:05:04.367Z,59.26
2017-08-07T04:07:35.469Z,59.55
2017-08-07T04:12:29.375Z,59.80
2017-08-07T04:15:00.800Z,59.77
2017-08-07T04:17:32.329Z,59.90
2017-08-07T04:20:04.005Z,59.91
2017-08-07T04:22:35.091Z,59.87
2017-08-07T04:25:06.169Z,60.00
2017-08-07T04:27:37.231Z,59.92
2017-08-07T04:30:08.612Z,59.94
2017-08-07T04:32:39.667Z,59.94
2017-08-07T04:35:10.716Z,60.05
2017-08-07T04:37:42.403Z,59.94
2017-08-07T04:40:13.427Z,59.83
2017-08-07T04:42:44.504Z,59.67
2017-08-07T04:45:15.859Z,59.37
2017-08-07T04:47:46.914Z,59.39
2017-08-07T04:50:18.013Z,59.48
2017-08-07T04:52:49.526Z,59.16
2017-08-07T04:55:20.551Z,59.07
2017-08-07T04:57:51.607Z,59.20
2017-08-07T05:00:22.921Z,59.02
2017-08-07T05:02:53.978Z,59.06
2017-08-07T05:05:25.028Z,58.85
2017-08-07T05:07:56.545Z,58.54
2017-08-07T05:10:27.558Z,58.55
2017-08-07T05:12:58.645Z,58.67
2017-08-07T05:15:30.018Z,58.77
2017-08-07T05:18:01.039Z,58.71
2017-08-07T05:20:32.329Z,58.59
2017-08-07T05:23:03.409Z,58.46
2017-08-07T05:25:34.517Z,58.06
2017-08-07T05:28:06.834Z,57.57
2017-08-07T05:30:37.850Z,57.07
2017-08-07T05:33:08.995Z,56.59
2017-08-07T05:35:40.457Z,56.21
2017-08-07T05:38:11.568Z,55.68
2017-08-07T05:40:42.675Z,55.22
2017-08-07T05:43:14.196Z,54.81
2017-08-07T05:45:45.214Z,54.68
2017-08-07T05:48:16.540Z,54.15
2017-08-07T05:50:47.616Z,53.77
2017-08-07T05:53:18.628Z,53.62
2017-08-07T05:55:49.646Z,53.19
2017-08-07T05:58:20.690Z,52.65
2017-08-07T06:00:52.125Z,52.27
2017-08-07T06:03:23.190Z,51.92
2017-08-07T06:05:54.344Z,51.53
2017-08-07T06:08:25.809Z,51.19
2017-08-07T06:10:56.875Z,50.83
2017-08-07T06:13:28.248Z,50.46
2017-08-07T06:15:59.288Z,50.01
2017-08-07T06:18:30.314Z,49.79
2017-08-07T06:21:01.697Z,49.77
2017-08-07T06:23:32.770Z,49.85
2017-08-07T06:26:04.272Z,49.89
2017-08-07T06:28:35.771Z,49.30
2017-08-07T06:31:06.828Z,48.71
2017-08-07T06:33:37.854Z,48.52
2017-08-07T06:36:09.225Z,48.30
2017-08-07T06:38:40.304Z,47.89
2017-08-07T06:41:11.419Z,47.64
2017-08-07T06:43:42.513Z,47.19
2017-08-07T06:46:13.584Z,46.87
2017-08-07T06:48:44.960Z,46.52
2017-08-07T06:51:16.018Z,46.43
2017-08-07T06:53:47.030Z,46.59
2017-08-07T06:56:18.074Z,46.66
2017-08-07T06:58:49.154Z,46.75
2017-08-07T07:01:20.567Z,46.58
2017-08-07T07:03:51.619Z,46.18
2017-08-07T07:06:22.922Z,45.77
2017-08-07T07:08:53.942Z,45.21
2017-08-07T07:11:24.928Z,45.12
2017-08-07T07:13:56.444Z,45.59
2017-08-07T07:16:27.476Z,45.41
2017-08-07T07:18:58.485Z,45.24
2017-08-07T07:21:29.982Z,45.02
2017-08-07T07:24:01.040Z,44.52
2017-08-07T07:26:32.056Z,43.75
2017-08-07T07:29:03.420Z,43.26
2017-08-07T07:31:34.951Z,42.95
2017-08-07T07:34:07.251Z,43.01
2017-08-07T07:36:38.267Z,43.17
2017-08-07T07:39:09.320Z,43.32
2017-08-07T07:41:40.335Z,43.33
2017-08-07T07:44:11.400Z,43.22
2017-08-07T07:46:42.839Z,42.92
2017-08-07T07:49:13.887Z,42.88
2017-08-07T07:51:45.016Z,42.95
2017-08-07T07:54:16.474Z,42.80
2017-08-07T07:56:47.504Z,42.07
2017-08-07T07:59:18.829Z,42.18
2017-08-07T08:01:50.121Z,42.21
2017-08-07T08:04:21.194Z,42.21
2017-08-07T08:06:52.884Z,42.28
2017-08-07T08:09:23.900Z,41.82
2017-08-07T08:11:55.180Z,41.94
2017-08-07T08:14:26.627Z,42.09
2017-08-07T08:16:57.615Z,41.87
2017-08-07T08:19:28.679Z,41.68
2017-08-07T08:21:59.692Z,41.36
2017-08-07T08:27:10.824Z,41.61
2017-08-07T08:29:41.855Z,41.70
2017-08-07T08:32:13.310Z,42.12
2017-08-07T08:34:44.322Z,42.18
2017-08-07T08:37:15.355Z,42.12
2017-08-07T08:39:46.738Z,42.31
2017-08-07T08:42:17.751Z,42.27
2017-08-07T08:44:48.787Z,42.12
2017-08-07T08:47:20.140Z,41.75
2017-08-07T08:49:51.139Z,42.09
2017-08-07T08:52:22.431Z,42.45
2017-08-07T08:54:53.446Z,42.31
2017-08-07T08:57:24.504Z,42.37
2017-08-07T08:59:56.799Z,42.02
2017-08-07T09:02:27.835Z,41.89
2017-08-07T09:04:58.871Z,41.87
2017-08-07T09:07:30.248Z,41.26
2017-08-07T09:10:02.665Z,41.44
2017-08-07T09:12:33.741Z,41.39
2017-08-07T09:15:04.747Z,41.04
2017-08-07T09:17:38.656Z,40.89
2017-08-07T09:20:09.684Z,40.84
2017-08-07T09:22:40.702Z,40.19
2017-08-07T09:25:12.498Z,40.21
2017-08-07T09:27:43.507Z,39.28
2017-08-07T09:30:14.988Z,38.87
2017-08-07T09:32:46.474Z,38.59
2017-08-07T09:35:17.480Z,38.61
2017-08-07T09:37:48.500Z,36.77
2017-08-07T09:40:19.895Z,37.24
2017-08-07T09:42:50.925Z,37.29
2017-08-07T09:45:21.951Z,37.04
2017-08-07T09:47:54.473Z,37.06
2017-08-07T09:50:25.503Z,36.48
2017-08-07T09:52:56.563Z,36.61
2017-08-07T09:55:27.883Z,36.68
2017-08-07T09:57:58.920Z,34.70
2017-08-07T10:00:30.214Z,34.53
2017-08-07T10:03:01.256Z,34.54
2017-08-07T10:05:32.354Z,34.59
2017-08-07T10:08:04.228Z,34.44
2017-08-07T10:10:35.284Z,33.42
2017-08-07T10:13:06.325Z,31.02
2017-08-07T10:15:37.751Z,31.14
2017-08-07T10:18:08.792Z,30.70
2017-08-07T10:20:39.845Z,30.46
2017-08-07T10:23:11.312Z,29.08
2017-08-07T10:25:42.459Z,29.25
2017-08-07T10:28:13.608Z,29.90
2017-08-07T10:30:45.202Z,29.22
2017-08-07T10:33:16.360Z,27.97
2017-08-07T10:35:47.528Z,27.94
2017-08-07T10:38:18.992Z,27.70
2017-08-07T10:40:50.298Z,27.96
2017-08-07T10:43:21.793Z,27.84
2017-08-07T10:45:53.392Z,27.49
2017-08-07T10:48:24.748Z,27.73
2017-08-07T10:50:55.906Z,27.18
2017-08-07T10:53:27.416Z,27.17
2017-08-07T10:55:58.534Z,27.32
2017-08-07T10:58:29.684Z,26.44
2017-08-07T11:01:01.014Z,26.57
2017-08-07T11:03:32.502Z,26.94
2017-08-07T11:06:04.676Z,27.13
2017-08-07T11:08:36.229Z,25.76
2017-08-07T11:11:07.417Z,25.56
2017-08-07T11:13:38.769Z,24.80
2017-08-07T11:16:10.496Z,24.59
2017-08-07T11:18:41.718Z,24.02
2017-08-07T11:21:13.775Z,23.97
2017-08-07T11:23:45.514Z,24.53
2017-08-07T11:26:17.286Z,24.50
2017-08-07T11:28:48.673Z,24.74
2017-08-07T11:31:19.765Z,24.76
2017-08-07T11:33:50.829Z,24.79
2017-08-07T11:36:22.255Z,23.97
2017-08-07T11:38:53.339Z,23.86
2017-08-07T11:41:24.384Z,23.66
2017-08-07T11:43:55.716Z,23.33
2017-08-07T11:46:26.775Z,23.19
2017-08-07T11:48:58.001Z,22.76
2017-08-07T11:51:29.463Z,23.08
2017-08-07T11:54:00.569Z,23.31
2017-08-07T11:56:31.916Z,23.18
2017-08-07T11:59:02.993Z,22.67
2017-08-07T12:01:34.217Z,22.13
2017-08-07T12:04:06.542Z,22.04
2017-08-07T12:06:37.544Z,21.69
2017-08-07T12:09:08.548Z,22.00
2017-08-07T12:11:40.035Z,21.96
2017-08-07T12:14:11.082Z,22.12
2017-08-07T12:16:42.368Z,22.32
2017-08-07T12:19:13.428Z,21.68
2017-08-07T12:24:45.233Z,21.71
2017-08-07T12:27:16.270Z,21.21
2017-08-07T12:29:47.584Z,21.24
2017-08-07T12:32:19.023Z,21.54
2017-08-07T12:34:50.060Z,21.21
2017-08-07T12:37:21.068Z,20.74
2017-08-07T12:39:52.408Z,19.53
2017-08-07T12:42:23.457Z,19.51
2017-08-07T12:44:54.588Z,19.77
2017-08-07T12:47:25.992Z,19.96
2017-08-07T12:49:57.140Z,19.97
2017-08-07T12:52:28.440Z,20.00
2017-08-07T12:54:59.533Z,19.92
2017-08-07T12:57:30.764Z,19.98
2017-08-07T13:00:02.956Z,19.46
2017-08-07T13:02:33.988Z,18.34
2017-08-07T13:05:05.172Z,17.84
2017-08-07T13:07:36.392Z,16.98
2017-08-07T13:10:07.709Z,16.49
2017-08-07T13:12:39.337Z,16.24
2017-08-07T13:15:10.450Z,15.86
2017-08-07T13:20:02.826Z,14.95
2017-08-07T13:22:34.147Z,14.49
2017-08-07T13:25:05.324Z,14.04
2017-08-07T13:27:36.852Z,13.83
2017-08-07T13:30:07.919Z,13.58
2017-08-07T13:32:39.034Z,13.40
2017-08-07T13:35:10.572Z,13.13
2017-08-07T13:37:41.757Z,12.68
2017-08-07T13:40:13.121Z,11.74
2017-08-07T13:42:44.211Z,11.44
2017-08-07T13:45:15.314Z,10.88
2017-08-07T13:47:46.813Z,10.74
2017-08-07T13:50:18.003Z,10.84
2017-08-07T13:52:49.125Z,10.67
2017-08-07T13:55:20.606Z,9.95
2017-08-07T13:57:51.715Z,10.04
2017-08-07T14:00:23.044Z,9.50
2017-08-07T14:02:54.123Z,8.92
2017-08-07T14:05:25.340Z,9.31
2017-08-07T14:07:57.005Z,9.31
2017-08-07T14:10:28.148Z,8.89
2017-08-07T14:12:59.234Z,9.05
2017-08-07T14:15:30.968Z,8.70
2017-08-07T14:18:02.580Z,8.59
2017-08-07T14:20:34.188Z,8.49
2017-08-07T14:23:05.478Z,8.24
2017-08-07T14:25:36.737Z,8.17
2017-08-07T14:28:08.256Z,7.99
2017-08-07T14:30:39.465Z,7.94
2017-08-07T14:33:10.576Z,8.17
2017-08-07T14:35:42.328Z,8.12
2017-08-07T14:38:13.430Z,7.86
2017-08-07T14:40:44.542Z,8.15
2017-08-07T14:43:16.205Z,8.34
2017-08-07T14:45:47.378Z,8.65
2017-08-07T14:48:18.757Z,8.71
2017-08-07T14:50:49.874Z,8.50
2017-08-07T14:53:21.641Z,8.33
2017-08-07T14:55:53.377Z,7.71
2017-08-07T14:58:24.563Z,8.13
2017-08-07T15:00:55.787Z,8.46
2017-08-07T15:03:27.604Z,8.63
2017-08-07T15:05:58.713Z,8.85
2017-08-07T15:08:30.034Z,8.77
2017-08-07T15:11:01.179Z,8.86
2017-08-07T15:13:32.194Z,8.47
2017-08-07T15:16:03.970Z,8.69
2017-08-07T15:18:34.982Z,9.18
2017-08-07T15:21:06.530Z,8.41
2017-08-07T15:23:37.530Z,8.85
2017-08-07T15:26:08.601Z,8.66
2017-08-07T15:28:39.696Z,8.89
2017-08-07T15:31:10.703Z,8.59
2017-08-07T15:33:42.118Z,8.76
2017-08-07T15:36:13.145Z,9.35
2017-08-07T15:38:44.148Z,8.76
2017-08-07T15:41:15.171Z,8.98
2017-08-07T15:43:46.176Z,8.96
2017-08-07T15:46:17.194Z,8.58
2017-08-07T15:48:48.720Z,9.43
2017-08-07T15:51:19.786Z,8.96
2017-08-07T15:53:50.877Z,8.49
2017-08-07T15:56:22.234Z,8.83
2017-08-07T15:58:53.265Z,8.47
2017-08-07T16:01:24.655Z,8.79
2017-08-07T16:03:55.711Z,8.71
2017-08-07T16:06:27.104Z,8.89
2017-08-07T16:08:58.160Z,9.46
2017-08-07T16:11:29.231Z,9.44
2017-08-07T16:14:00.832Z,9.14
2017-08-07T16:16:31.877Z,9.08
2017-08-07T16:19:03.221Z,9.07
2017-08-07T16:21:34.240Z,9.57
2017-08-07T16:24:06.037Z,9.78
2017-08-07T16:26:37.382Z,9.98
2017-08-07T16:29:08.393Z,10.05
2017-08-07T16:31:39.459Z,10.18
2017-08-07T16:34:10.524Z,10.71
2017-08-07T16:36:41.599Z,10.79
2017-08-07T16:39:12.983Z,11.17
2017-08-07T16:41:43.989Z,11.44
2017-08-07T16:44:15.055Z,12.07
2017-08-07T16:46:46.140Z,11.93
2017-08-07T16:49:17.172Z,11.88
2017-08-07T16:51:49.685Z,11.98
2017-08-07T16:54:20.805Z,12.21
2017-08-07T16:56:51.842Z,12.39
2017-08-07T16:59:23.227Z,13.16
2017-08-07T17:01:54.319Z,13.69
2017-08-07T17:04:25.426Z,14.86
2017-08-07T17:06:57.077Z,16.04
2017-08-07T17:09:28.189Z,16.40
2017-08-07T17:11:59.240Z,17.16
2017-08-07T17:14:30.604Z,17.90
2017-08-07T17:17:01.706Z,18.66
2017-08-07T17:19:33.107Z,19.47
2017-08-07T17:22:04.936Z,19.93
2017-08-07T17:24:36.052Z,20.01
2017-08-07T17:27:07.158Z,20.97
2017-08-07T17:29:38.210Z,21.34
2017-08-07T17:32:09.755Z,21.88
2017-08-07T17:34:40.819Z,22.38
2017-08-07T17:37:11.840Z,22.94
2017-08-07T17:39:42.915Z,23.30
2017-08-07T17:42:13.948Z,23.77
2017-08-07T17:44:45.232Z,23.82
2017-08-07T17:47:16.243Z,24.57
2017-08-07T17:49:47.344Z,24.90
2017-08-07T17:52:18.352Z,25.54
2017-08-07T17:54:49.428Z,25.72
2017-08-07T17:57:20.949Z,26.05
2017-08-07T17:59:52.045Z,26.20
2017-08-07T18:02:23.106Z,26.61
2017-08-07T18:04:54.628Z,26.98
2017-08-07T18:07:25.747Z,27.12
2017-08-07T18:09:57.135Z,27.52
2017-08-07T18:12:29.367Z,27.82
2017-08-07T18:15:00.483Z,28.17
2017-08-07T18:17:32.960Z,28.63
2017-08-07T18:20:04.517Z,28.81
2017-08-07T18:22:35.578Z,29.09
2017-08-07T18:25:07.160Z,29.33
2017-08-07T18:27:38.263Z,29.51
2017-08-07T18:30:09.557Z,29.76
2017-08-07T18:32:40.633Z,29.98
2017-08-07T18:35:11.735Z,30.19
2017-08-07T18:37:43.105Z,30.42
2017-08-07T18:40:14.270Z,30.56
2017-08-07T18:42:45.281Z,30.79
2017-08-07T18:45:16.333Z,31.05
2017-08-07T18:47:47.490Z,31.27
2017-08-07T18:50:19.017Z,31.54
2017-08-07T18:52:50.066Z,31.73
2017-08-07T18:55:21.533Z,31.98
2017-08-07T18:57:52.750Z,32.20
2017-08-07T19:00:23.834Z,32.47
2017-08-07T19:02:55.367Z,32.60
2017-08-07T19:05:26.519Z,32.86
2017-08-07T19:07:57.654Z,33.06
2017-08-07T19:10:28.864Z,33.36
2017-08-07T19:12:59.975Z,33.52
2017-08-07T19:15:31.347Z,33.66
2017-08-07T19:18:02.935Z,33.83
2017-08-07T19:20:34.308Z,33.93
2017-08-07T19:23:05.607Z,33.99
2017-08-07T19:25:36.807Z,34.20
2017-08-07T19:28:08.309Z,34.38
2017-08-07T19:30:39.318Z,34.79
2017-08-07T19:33:10.354Z,35.21
2017-08-07T19:35:41.746Z,35.64
2017-08-07T19:38:12.824Z,35.84
2017-08-07T19:40:43.857Z,35.82
2017-08-07T19:43:16.209Z,35.93
2017-08-07T19:45:47.252Z,36.03
2017-08-07T19:48:19.124Z,36.28
2017-08-07T19:50:50.150Z,36.70
2017-08-07T19:53:21.291Z,37.12
2017-08-07T19:55:52.827Z,37.39
2017-08-07T19:58:23.882Z,37.70
2017-08-07T20:00:55.045Z,38.03
2017-08-07T20:03:26.118Z,38.39
2017-08-07T20:05:57.176Z,38.55
2017-08-07T20:08:28.854Z,38.68
2017-08-07T20:10:59.928Z,38.96
2017-08-07T20:13:30.949Z,39.09
2017-08-07T20:16:02.870Z,39.26
2017-08-07T20:18:33.903Z,39.51
2017-08-07T20:21:05.446Z,39.87
2017-08-07T20:23:36.502Z,40.08
2017-08-07T20:26:07.572Z,40.15
2017-08-07T20:28:39.126Z,40.30
2017-08-07T20:31:10.222Z,40.47
2017-08-07T20:33:41.541Z,41.02
2017-08-07T20:36:12.660Z,40.88
2017-08-07T20:38:43.713Z,41.05
2017-08-07T20:41:15.151Z,40.96
2017-08-07T20:43:46.161Z,41.40
2017-08-07T20:46:17.296Z,41.65
2017-08-07T20:48:49.358Z,41.61
2017-08-07T20:51:20.457Z,41.44
2017-08-07T20:53:51.520Z,41.58
2017-08-07T20:56:22.968Z,41.54
2017-08-07T20:58:54.000Z,41.66
2017-08-07T21:01:25.002Z,42.21
2017-08-07T21:03:56.435Z,42.25
2017-08-07T21:06:27.491Z,41.91
2017-08-07T21:08:58.525Z,42.12
2017-08-07T21:11:30.067Z,42.01
2017-08-07T21:14:01.109Z,41.78
2017-08-07T21:16:32.159Z,42.22
2017-08-07T21:19:03.555Z,42.27
2017-08-07T21:21:34.601Z,42.30
2017-08-07T21:24:06.398Z,42.42
2017-08-07T21:26:37.423Z,43.73
2017-08-07T21:29:08.531Z,43.04
2017-08-07T21:31:39.847Z,43.01
2017-08-07T21:34:10.902Z,42.89
2017-08-07T21:36:41.938Z,42.95
2017-08-07T21:39:13.346Z,42.97
2017-08-07T21:41:44.352Z,43.16
2017-08-07T21:44:15.468Z,43.18
2017-08-07T21:46:46.951Z,43.15
2017-08-07T21:49:17.967Z,43.30
2017-08-07T21:51:49.250Z,43.43
2017-08-07T21:54:20.311Z,43.52
2017-08-07T21:56:51.303Z,43.75
2017-08-07T21:59:22.821Z,43.54
2017-08-07T22:01:53.841Z,43.79
2017-08-07T22:04:24.888Z,43.74
2017-08-07T22:06:56.275Z,44.02
2017-08-07T22:09:27.292Z,44.13
2017-08-07T22:11:58.292Z,44.23
2017-08-07T22:14:29.314Z,44.41
2017-08-07T22:17:00.361Z,44.55
2017-08-07T22:19:31.870Z,44.80
2017-08-07T22:22:04.709Z,45.41
2017-08-07T22:24:35.721Z,45.91
2017-08-07T22:27:06.820Z,45.73
2017-08-07T22:29:37.880Z,46.15
2017-08-07T22:32:09.471Z,46.96
2017-08-07T22:34:40.540Z,46.44
2017-08-07T22:37:11.575Z,46.60
2017-08-07T22:39:42.639Z,46.43
2017-08-07T22:42:13.709Z,47.54
2017-08-07T22:44:45.132Z,47.88
2017-08-07T22:47:16.151Z,48.25
2017-08-07T22:49:47.187Z,48.51
2017-08-07T22:52:18.498Z,47.62
2017-08-07T22:54:49.490Z,48.42
2017-08-07T22:57:20.522Z,47.11
2017-08-07T22:59:51.854Z,46.81
2017-08-07T23:02:23.047Z,46.82
2017-08-07T23:04:54.154Z,47.08
2017-08-07T23:07:25.622Z,47.73
2017-08-07T23:09:56.665Z,47.59
2017-08-07T23:12:27.725Z,47.38
2017-08-07T23:14:59.309Z,47.27
2017-08-07T23:17:30.435Z,47.20
2017-08-07T23:20:03.111Z,47.30
2017-08-07T23:22:34.580Z,47.44
2017-08-07T23:25:05.579Z,47.32
2017-08-07T23:27:36.959Z,47.32
2017-08-07T23:30:08.699Z,47.42
2017-08-07T23:32:39.771Z,48.27
2017-08-07T23:35:10.843Z,48.92
2017-08-07T23:37:42.259Z,48.69
2017-08-07T23:40:13.335Z,48.46
2017-08-07T23:42:44.464Z,49.60
2017-08-07T23:45:15.481Z,49.92
2017-08-07T23:47:46.538Z,49.89
2017-08-07T23:50:17.957Z,49.92
2017-08-07T23:52:49.041Z,49.87
2017-08-07T23:55:20.434Z,49.51
2017-08-07T23:57:51.584Z,49.44
